TimeEDT,TemperatureF,Dew PointF,Humidity,Sea Level PressureIn,VisibilityMPH,Wind Direction,Wind SpeedMPH,Gust SpeedMPH,PrecipitationIn,Events,Conditions,WindDirDegrees,DateUTC
12:53 AM,53.1,46.9,80,29.92,10.0,SSE,15.0,24.2,N/A,,Clear,160,2013-04-29 04:53:00
1:53 AM,53.1,46.9,80,29.91,10.0,SSE,13.8,-,N/A,,Overcast,150,2013-04-29 05:53:00
2:53 AM,53.1,46.9,80,29.92,9.0,SSE,11.5,-,0.01,Rain,Light Rain,160,2013-04-29 06:53:00
3:33 AM,51.8,46.4,82,29.91,10.0,SSE,10.4,-,0.02,,Overcast,150,2013-04-29 07:33:00
3:53 AM,52.0,46.9,83,29.92,9.0,SSE,8.1,-,0.02,Rain,Light Rain,150,2013-04-29 07:53:00
4:05 AM,51.8,46.4,82,29.92,10.0,SSE,10.4,-,0.00,,Overcast,150,2013-04-29 08:05:00
4:53 AM,53.1,46.9,80,29.92,10.0,SSE,9.2,-,0.00,,Overcast,150,2013-04-29 08:53:00
5:53 AM,53.1,46.9,80,29.93,10.0,South,9.2,-,N/A,,Overcast,170,2013-04-29 09:53:00
6:11 AM,53.6,46.4,77,29.92,10.0,South,10.4,-,N/A,,Overcast,170,2013-04-29 10:11:00
6:53 AM,53.1,48.0,83,29.94,10.0,South,5.8,-,N/A,,Mostly Cloudy,170,2013-04-29 10:53:00
7:01 AM,53.6,48.2,82,29.94,10.0,South,10.4,-,N/A,,Mostly Cloudy,170,2013-04-29 11:01:00
7:25 AM,53.6,48.2,82,29.94,10.0,SSE,11.5,-,N/A,,Overcast,160,2013-04-29 11:25:00
7:53 AM,54.0,48.9,83,29.95,10.0,South,8.1,-,N/A,,Overcast,170,2013-04-29 11:53:00
8:25 AM,53.6,48.2,82,29.95,10.0,SSE,10.4,-,N/A,,Overcast,160,2013-04-29 12:25:00
8:53 AM,55.0,48.9,80,29.96,10.0,South,9.2,17.3,N/A,,Overcast,170,2013-04-29 12:53:00
9:20 AM,55.4,50.0,82,29.96,10.0,SSE,11.5,-,0.00,Rain,Light Rain,160,2013-04-29 13:20:00
9:35 AM,55.4,51.8,88,29.96,10.0,South,9.2,-,0.00,,Overcast,170,2013-04-29 13:35:00
9:53 AM,55.9,51.1,84,29.96,10.0,SSE,10.4,-,0.00,,Overcast,160,2013-04-29 13:53:00
10:53 AM,57.0,51.1,81,29.96,10.0,SSE,8.1,-,0.01,,Overcast,160,2013-04-29 14:53:00
11:53 AM,57.9,52.0,81,29.97,10.0,South,9.2,-,N/A,,Overcast,180,2013-04-29 15:53:00
12:53 PM,57.0,53.1,87,29.97,2.5,South,4.6,-,0.00,Rain,Light Rain,190,2013-04-29 16:53:00
1:01 PM,57.2,53.6,88,29.97,2.0,SW,5.8,-,0.01,Rain,Light Rain,220,2013-04-29 17:01:00
1:12 PM,57.2,55.4,94,29.97,4.0,SE,3.5,-,0.01,,Overcast,140,2013-04-29 17:12:00
1:20 PM,57.2,53.6,88,29.97,7.0,South,4.6,-,0.01,,Overcast,180,2013-04-29 17:20:00
1:40 PM,59.0,55.4,88,29.97,10.0,Calm,Calm,-,0.01,,Overcast,0,2013-04-29 17:40:00
1:53 PM,59.0,55.0,87,29.96,7.0,Calm,Calm,-,0.01,,Overcast,0,2013-04-29 17:53:00
2:33 PM,57.2,51.8,82,29.97,10.0,NW,8.1,-,N/A,,Overcast,310,2013-04-29 18:33:00
2:53 PM,57.0,53.1,87,29.97,4.0,NW,9.2,-,0.02,Rain,Light Rain,320,2013-04-29 18:53:00
3:03 PM,57.2,53.6,88,29.97,6.0,NW,3.5,-,0.00,Rain,Light Rain,320,2013-04-29 19:03:00
3:35 PM,59.0,53.6,82,29.97,10.0,Calm,Calm,-,0.00,,Overcast,0,2013-04-29 19:35:00
3:53 PM,59.0,52.0,78,29.97,10.0,Calm,Calm,-,0.00,,Overcast,0,2013-04-29 19:53:00
4:06 PM,59.0,53.6,82,29.97,10.0,Calm,Calm,-,N/A,,Overcast,0,2013-04-29 20:06:00
4:48 PM,60.8,53.6,77,29.96,10.0,East,4.6,-,N/A,,Overcast,100,2013-04-29 20:48:00
4:53 PM,61.0,54.0,78,29.96,10.0,East,3.5,-,N/A,,Overcast,80,2013-04-29 20:53:00
5:53 PM,59.0,53.1,81,29.97,10.0,East,6.9,-,N/A,,Overcast,100,2013-04-29 21:53:00
6:40 PM,57.2,53.6,88,29.97,4.0,NE,3.5,-,0.02,Rain,Light Rain,50,2013-04-29 22:40:00
6:53 PM,57.9,53.1,84,29.98,8.0,Calm,Calm,-,0.02,Rain,Light Rain,0,2013-04-29 22:53:00
7:04 PM,57.2,53.6,88,29.98,5.0,West,3.5,-,0.01,Rain,Light Rain,280,2013-04-29 23:04:00
7:35 PM,57.2,53.6,88,29.98,10.0,Calm,Calm,-,0.02,,Overcast,0,2013-04-29 23:35:00
7:53 PM,57.9,54.0,87,29.99,10.0,Calm,Calm,-,0.02,,Overcast,0,2013-04-29 23:53:00
8:22 PM,57.2,53.6,88,29.99,9.0,North,4.6,-,N/A,,Overcast,10,2013-04-30 00:22:00
8:29 PM,55.4,51.8,88,29.99,8.0,North,4.6,-,N/A,,Overcast,10,2013-04-30 00:29:00
8:53 PM,55.9,52.0,87,30.00,10.0,Calm,Calm,-,N/A,,Overcast,0,2013-04-30 00:53:00
9:53 PM,55.0,52.0,89,30.02,7.0,Calm,Calm,-,N/A,,Overcast,0,2013-04-30 01:53:00
10:20 PM,55.4,51.8,88,30.02,2.5,Calm,Calm,-,N/A,,Overcast,0,2013-04-30 02:20:00
10:34 PM,55.4,51.8,88,30.01,3.0,ESE,3.5,-,N/A,,Overcast,120,2013-04-30 02:34:00
10:53 PM,55.9,53.1,90,30.01,5.0,SE,4.6,-,N/A,,Overcast,140,2013-04-30 02:53:00
11:53 PM,57.0,53.1,87,30.01,10.0,SE,5.8,-,N/A,,Overcast,140,2013-04-30 03:53:00